KBZN/BZN METAR and TAF weather

Enter ICAO airport designator
Station Type Date Time Source
KBZN METAR 2019/12/14 10:56 UTC NOAA

KBZN 141056Z AUTO 12004KT 10SM BKN075 M07/M10 A2978 RMK AO2 SLP119 T10721100


Station Type Date Time Source
KBZN Decoded METAR 2019/12/14 10:56 UTC NOAA

BOZEMAN GALLATIN FIELD, MT, United States (KBZN) 45-47N 111-09W 1361M
Dec 14, 2019 - 05:56 AM EST / 2019.12.14 1056 UTC
Wind: from the ESE (120 degrees) at 5 MPH (4 KT):0
Visibility: 10 mile(s):0
Sky conditions: mostly cloudy
Temperature: 19.0 F (-7.2 C)
Windchill: 12 F (-11 C):1
Dew Point: 14.0 F (-10.0 C)
Relative Humidity: 80%
Pressure (altimeter): 29.78 in. Hg (1008 hPa)
ob: KBZN 141056Z AUTO 12004KT 10SM BKN075 M07/M10 A2978 RMK AO2 SLP119 T10721100
cycle: 11

Station Type Date Time Source
KBZN TAF 2019/12/14 12:30 UTC NOAA

TAF KBZN 141130Z 1412/1518 VRB05KT P6SM BKN070 OVC090
FM141600 VRB05KT P6SM SCT025 BKN050 OVC080
FM150000 VRB05KT P6SM VCSH SCT025 OVC050
FM150600 VRB03KT P6SM SCT025 BKN050
FM151400 VRB03KT P6SM SCT035 OVC050

Example: see airport list